This is the latest recevied weather packets stored in our database for station/object HA9OZD-18. If no packets are shown the sender has not sent any weather packets the latest 10 day(s).
| Time | Temp. | Humidity | Pressure | Rain* | Wind** | Luminosity | Snow |
|---|---|---|---|---|---|---|---|
| 1787597099 | 16.11° C | 47% | 1019.4 hPa | - | - | - | - |
| 1787593498 | 16.67° C | 45% | 1019.1 hPa | - | - | - | - |
| 1787589898 | 17.78° C | 42% | 1019.3 hPa | - | - | - | - |
| 1787586298 | 18.89° C | 39% | 1019.6 hPa | - | - | - | - |
| 1787582698 | 20° C | 36% | 1019.8 hPa | - | - | - | - |
| 1787579097 | 22.22° C | 32% | 1019.7 hPa | - | - | - | - |
| 1787575497 | 19.44° C | 36% | 1020 hPa | - | - | - | - |
| 1787571897 | 21.67° C | 34% | 1020.3 hPa | - | - | - | - |
| 1787568297 | 18.33° C | 39% | 1020.5 hPa | - | - | - | - |
| 1787564696 | 17.78° C | 40% | 1020.5 hPa | - | - | - | - |
| 1787561096 | 17.78° C | 40% | 1020.6 hPa | - | - | - | - |
| 1787557496 | 17.78° C | 42% | 1020.5 hPa | - | - | - | - |
| 1787553895 | 15.56° C | 50% | 1020.6 hPa | - | - | - | - |
| 1787550295 | 13.33° C | 56% | 1020.4 hPa | - | - | - | - |
| 1787546695 | 12.78° C | 58% | 1020.1 hPa | - | - | - | - |
| 1787543095 | 12.22° C | 60% | 1020 hPa | - | - | - | - |
| 1787539494 | 12.22° C | 59% | 1020.1 hPa | - | - | - | - |
| 1787535894 | 12.22° C | 58% | 1020.2 hPa | - | - | - | - |
| 1787532294 | 12.78° C | 54% | 1020.1 hPa | - | - | - | - |
| 1787528757 | 13.33° C | 51% | 1020 hPa | - | - | - | - |
| 1787528694 | 13.33° C | 51% | 1020 hPa | - | - | - | - |
| 1787525093 | 12.78° C | 49% | 1020.2 hPa | - | - | - | - |
| 1787521493 | 13.33° C | 45% | 1020 hPa | - | - | - | - |
| 1787517893 | 13.89° C | 42% | 1020.1 hPa | - | - | - | - |
| 1787514292 | 15° C | 40% | 1020.2 hPa | - | - | - | - |
* Rain since midnight (hover to see other rain measurements)
** Current wind speed in m/s (hover to see current wind gust speed)